createdAt,value
2018-03-21T00:00:18.899Z,-3.10
2018-03-21T00:02:49.208Z,-3.10
2018-03-21T00:05:19.611Z,-3.00
2018-03-21T00:07:51.886Z,-3.00
2018-03-21T00:10:22.823Z,-2.90
2018-03-21T00:12:53.923Z,-2.80
2018-03-21T00:15:24.255Z,-2.80
2018-03-21T00:17:54.915Z,-2.80
2018-03-21T00:20:25.532Z,-2.70
2018-03-21T00:22:55.774Z,-2.70
2018-03-21T00:25:28.049Z,-2.80
2018-03-21T00:27:59.341Z,-2.80
2018-03-21T00:30:29.651Z,-2.80
2018-03-21T00:33:00.372Z,-3.00
2018-03-21T00:35:31.815Z,-2.90
2018-03-21T00:38:02.591Z,-2.90
2018-03-21T00:40:33.495Z,-2.80
2018-03-21T00:43:04.168Z,-2.90
2018-03-21T00:45:35.619Z,-2.80
2018-03-21T00:48:08.015Z,-2.90
2018-03-21T00:50:38.597Z,-2.90
2018-03-21T00:53:09.472Z,-3.00
2018-03-21T00:55:40.159Z,-2.90
2018-03-21T00:58:10.472Z,-3.00
2018-03-21T01:00:40.883Z,-3.00
2018-03-21T01:03:12.103Z,-2.90
2018-03-21T01:05:42.685Z,-2.80
2018-03-21T01:08:14.247Z,-2.80
2018-03-21T01:10:45.207Z,-2.90
2018-03-21T01:13:16.067Z,-2.80
2018-03-21T01:15:46.693Z,-2.80
2018-03-21T01:18:19.082Z,-2.80
2018-03-21T01:20:49.546Z,-2.80
2018-03-21T01:23:20.572Z,-2.70
2018-03-21T01:25:50.992Z,-2.70
2018-03-21T01:28:22.734Z,-2.70
2018-03-21T01:30:53.555Z,-2.70
2018-03-21T01:33:24.147Z,-2.60
2018-03-21T01:35:55.262Z,-2.60
2018-03-21T01:38:25.764Z,-2.80
2018-03-21T01:40:56.658Z,-3.00
2018-03-21T01:43:27.336Z,-2.90
2018-03-21T01:45:59.446Z,-2.90
2018-03-21T01:48:30.318Z,-3.00
2018-03-21T01:51:00.841Z,-2.80
2018-03-21T01:53:31.423Z,-2.90
2018-03-21T01:56:02.583Z,-2.70
2018-03-21T01:58:34.380Z,-2.70
2018-03-21T02:01:05.224Z,-2.80
2018-03-21T02:03:37.128Z,-2.60
2018-03-21T02:06:09.204Z,-2.70
2018-03-21T02:08:40.695Z,-2.70
2018-03-21T02:11:11.062Z,-2.60
2018-03-21T02:13:41.433Z,-2.80
2018-03-21T02:16:11.848Z,-2.90
2018-03-21T02:18:43.040Z,-2.60
2018-03-21T02:21:14.532Z,-2.50
2018-03-21T02:23:45.644Z,-2.50
2018-03-21T02:26:16.066Z,-2.50
2018-03-21T02:28:46.665Z,-2.70
2018-03-21T02:31:17.654Z,-2.80
2018-03-21T02:33:48.345Z,-3.10
2018-03-21T02:36:20.171Z,-2.90
2018-03-21T02:38:50.502Z,-3.00
2018-03-21T02:41:21.632Z,-2.90
2018-03-21T02:43:52.220Z,-2.80
2018-03-21T02:46:22.578Z,-2.80
2018-03-21T02:48:52.826Z,-2.90
2018-03-21T02:51:23.115Z,-2.90
2018-03-21T02:53:53.298Z,-2.90
2018-03-21T02:56:23.424Z,-2.80
2018-03-21T02:58:54.028Z,-2.70
2018-03-21T03:01:25.549Z,-2.60
2018-03-21T03:03:55.641Z,-2.60
2018-03-21T03:06:26.304Z,-2.50
2018-03-21T03:08:56.811Z,-2.40
2018-03-21T03:11:27.047Z,-2.50
2018-03-21T03:13:57.749Z,-2.40
2018-03-21T03:16:28.109Z,-2.30
2018-03-21T03:18:58.532Z,-2.20
2018-03-21T03:21:28.987Z,-2.20
2018-03-21T03:23:59.634Z,-2.20
2018-03-21T03:26:30.199Z,-2.20
2018-03-21T03:29:00.763Z,-2.30
2018-03-21T03:31:30.885Z,-2.60
2018-03-21T03:34:03.351Z,-2.50
2018-03-21T03:36:33.620Z,-2.30
2018-03-21T03:39:04.062Z,-2.40
2018-03-21T03:41:34.972Z,-2.50
2018-03-21T03:44:05.610Z,-2.50
2018-03-21T03:46:36.456Z,-2.70
2018-03-21T03:49:07.598Z,-2.80
2018-03-21T03:51:38.303Z,-2.70
2018-03-21T03:54:08.753Z,-2.50
2018-03-21T03:56:39.248Z,-2.70
2018-03-21T03:59:09.782Z,-2.60
2018-03-21T04:01:40.838Z,-2.60
2018-03-21T04:04:14.932Z,-2.20
2018-03-21T04:06:46.264Z,-2.30
2018-03-21T04:09:20.215Z,-2.30
2018-03-21T04:11:51.820Z,-2.40
2018-03-21T04:14:22.943Z,-2.30
2018-03-21T04:16:53.319Z,-2.20
2018-03-21T04:19:23.978Z,-2.50
2018-03-21T04:21:54.931Z,-2.50
2018-03-21T04:24:25.443Z,-2.60
2018-03-21T04:26:56.499Z,-2.60
2018-03-21T04:29:27.121Z,-2.50
2018-03-21T04:31:57.658Z,-2.40
2018-03-21T04:34:28.472Z,-2.30
2018-03-21T04:36:59.016Z,-2.40
2018-03-21T04:39:30.458Z,-2.50
2018-03-21T04:42:01.280Z,-2.50
2018-03-21T04:44:32.620Z,-2.60
2018-03-21T04:47:03.172Z,-2.60
2018-03-21T04:49:42.952Z,-2.40
2018-03-21T04:52:14.155Z,-2.40
2018-03-21T04:54:45.184Z,-2.40
2018-03-21T04:57:15.850Z,-2.20
2018-03-21T04:59:46.900Z,-2.20
2018-03-21T05:02:17.561Z,-2.30
2018-03-21T05:04:47.887Z,-2.20
2018-03-21T05:07:18.091Z,-2.20
2018-03-21T05:09:48.936Z,-2.40
2018-03-21T05:12:20.818Z,-2.40
2018-03-21T05:15:01.224Z,-2.40
2018-03-21T05:17:33.033Z,-2.30
2018-03-21T05:20:03.254Z,-2.20
2018-03-21T05:22:34.238Z,-2.40
2018-03-21T05:25:04.371Z,-2.40
2018-03-21T05:27:35.960Z,-2.30
2018-03-21T05:30:08.024Z,-2.30
2018-03-21T05:32:38.827Z,-2.20
2018-03-21T05:35:09.452Z,-2.10
2018-03-21T05:37:40.005Z,-2.00
2018-03-21T05:40:12.592Z,-2.10
2018-03-21T05:42:46.016Z,-2.10
2018-03-21T05:45:21.504Z,-2.10
2018-03-21T05:47:52.223Z,-2.00
2018-03-21T05:51:05.954Z,-2.20
2018-03-21T05:53:37.785Z,-2.00
2018-03-21T05:56:08.234Z,-1.90
2018-03-21T05:58:38.844Z,-2.00
2018-03-21T06:01:10.635Z,-2.10
2018-03-21T06:03:41.333Z,-2.00
2018-03-21T06:06:12.651Z,-2.00
2018-03-21T06:08:43.533Z,-1.80
2018-03-21T06:11:15.635Z,-1.90
2018-03-21T06:13:46.550Z,-1.80
2018-03-21T06:16:21.158Z,-1.60
2018-03-21T06:18:54.241Z,-1.60
2018-03-21T06:21:25.021Z,-1.50
2018-03-21T06:23:56.179Z,-1.50
2018-03-21T06:26:27.965Z,-1.50
2018-03-21T06:29:13.770Z,-1.60
2018-03-21T06:31:47.836Z,-1.50
2018-03-21T06:37:56.263Z,-1.70
2018-03-21T06:40:28.482Z,-1.80
2018-03-21T06:42:59.241Z,-1.90
2018-03-21T06:46:55.879Z,-1.60
2018-03-21T06:49:35.869Z,-1.60
2018-03-21T06:52:19.809Z,-1.30
2018-03-21T06:55:14.330Z,-1.10
2018-03-21T06:57:52.705Z,-1.10
2018-03-21T07:03:53.632Z,-1.30
2018-03-21T07:06:41.540Z,-0.80
2018-03-21T07:09:16.261Z,-0.50
2018-03-21T07:12:21.145Z,-0.20
2018-03-21T07:15:03.637Z,0.10
2018-03-21T07:17:36.149Z,0.20
2018-03-21T07:20:07.955Z,0.50
2018-03-21T07:22:41.898Z,0.70
2018-03-21T07:25:14.958Z,0.70
2018-03-21T07:27:48.928Z,0.60
2018-03-21T07:33:58.341Z,0.70
2018-03-21T07:39:52.936Z,0.70
2018-03-21T07:42:40.171Z,0.70
2018-03-21T07:45:26.138Z,0.80
2018-03-21T07:47:59.040Z,0.60
2018-03-21T07:50:30.070Z,0.60
2018-03-21T07:53:00.998Z,0.70
2018-03-21T07:55:50.270Z,0.90
2018-03-21T07:58:22.478Z,1.10
2018-03-21T08:00:55.708Z,1.20
2018-03-21T08:03:33.461Z,1.00
2018-03-21T08:06:05.493Z,1.10
2018-03-21T08:08:39.312Z,1.00
2018-03-21T08:11:11.485Z,1.20
2018-03-21T08:13:46.182Z,1.20
2018-03-21T08:16:26.980Z,0.90
2018-03-21T08:18:58.232Z,0.80
2018-03-21T08:21:30.771Z,0.50
2018-03-21T08:25:25.741Z,0.40
2018-03-21T08:27:56.398Z,0.80
2018-03-21T08:30:31.662Z,0.10
2018-03-21T08:33:10.878Z,-0.10
2018-03-21T08:38:49.429Z,0.10
2018-03-21T08:41:19.834Z,-0.10
2018-03-21T08:43:52.196Z,0.30
2018-03-21T08:46:48.543Z,0.30
2018-03-21T08:49:19.357Z,0.20
2018-03-21T08:51:55.799Z,-0.70
2018-03-21T08:54:26.751Z,-0.70
2018-03-21T08:57:00.418Z,-1.20
2018-03-21T08:59:32.092Z,-1.20
2018-03-21T09:02:09.106Z,-1.30
2018-03-21T09:04:40.723Z,-1.30
2018-03-21T09:07:17.627Z,-1.30
2018-03-21T09:10:05.459Z,-1.10
2018-03-21T09:12:47.851Z,-1.60
2018-03-21T09:15:21.832Z,-2.00
2018-03-21T09:17:55.932Z,-2.00
2018-03-21T09:20:27.084Z,-1.30
2018-03-21T09:23:05.929Z,-1.40
2018-03-21T09:25:39.200Z,-1.10
2018-03-21T09:28:10.748Z,-1.00
2018-03-21T09:30:41.012Z,-0.70
2018-03-21T09:33:14.072Z,-1.00
2018-03-21T09:35:45.228Z,-1.00
2018-03-21T09:38:17.843Z,-1.30
2018-03-21T09:40:50.905Z,-1.40
2018-03-21T09:43:21.791Z,-1.50
2018-03-21T09:45:53.739Z,-1.70
2018-03-21T09:48:25.175Z,-2.00
2018-03-21T09:50:56.967Z,-1.80
2018-03-21T09:53:35.439Z,-1.80
2018-03-21T09:56:11.580Z,-1.80
2018-03-21T09:58:48.572Z,-1.60
2018-03-21T10:04:56.721Z,-1.20
2018-03-21T10:07:28.652Z,-0.90
2018-03-21T10:10:00.243Z,-1.20
2018-03-21T10:12:31.050Z,-1.20
2018-03-21T10:15:01.801Z,-1.00
2018-03-21T10:21:07.657Z,-0.90
2018-03-21T10:26:56.723Z,0.20
2018-03-21T10:29:29.239Z,0.90
2018-03-21T10:32:03.556Z,1.80
2018-03-21T10:34:37.259Z,1.80
2018-03-21T10:37:24.833Z,1.70
2018-03-21T10:39:57.047Z,1.90
2018-03-21T10:46:17.730Z,2.40
2018-03-21T10:48:49.798Z,2.40
2018-03-21T10:51:30.809Z,0.80
2018-03-21T10:54:02.920Z,0.50
2018-03-21T10:56:33.882Z,1.40
2018-03-21T10:59:15.826Z,1.60
2018-03-21T11:01:53.383Z,1.50
2018-03-21T11:10:46.520Z,1.20
2018-03-21T11:13:19.349Z,1.20
2018-03-21T11:15:51.659Z,1.20
2018-03-21T11:18:22.757Z,2.20
2018-03-21T11:20:54.010Z,2.50
2018-03-21T11:23:28.323Z,3.00
2018-03-21T11:26:07.067Z,3.00
2018-03-21T11:28:38.508Z,3.80
2018-03-21T11:31:09.569Z,4.10
2018-03-21T11:33:41.157Z,3.30
2018-03-21T11:36:12.884Z,3.70
2018-03-21T11:38:50.088Z,4.20
2018-03-21T11:41:21.313Z,4.00
2018-03-21T11:44:04.071Z,2.80
2018-03-21T11:46:36.511Z,2.80
2018-03-21T11:49:08.581Z,2.60
2018-03-21T11:51:39.162Z,2.60
2018-03-21T11:54:41.856Z,2.50
2018-03-21T12:05:11.023Z,3.50
2018-03-21T12:08:26.414Z,3.10
2018-03-21T12:10:58.648Z,3.50
2018-03-21T12:13:36.272Z,3.50
2018-03-21T12:16:12.729Z,3.50
2018-03-21T12:18:44.945Z,3.70
2018-03-21T12:22:42.543Z,3.90
2018-03-21T12:25:15.123Z,3.70
2018-03-21T12:27:46.199Z,4.40
2018-03-21T12:30:18.028Z,4.80
2018-03-21T12:32:49.782Z,4.80
2018-03-21T12:35:20.643Z,4.70
2018-03-21T12:38:09.161Z,4.40
2018-03-21T12:40:45.347Z,4.60
2018-03-21T12:43:18.589Z,4.10
2018-03-21T12:45:52.210Z,4.10
2018-03-21T12:51:57.912Z,4.30
2018-03-21T12:54:30.097Z,4.00
2018-03-21T12:57:12.018Z,4.40
2018-03-21T12:59:44.417Z,4.40
2018-03-21T13:02:15.139Z,4.40
2018-03-21T13:04:48.360Z,4.30
2018-03-21T13:10:31.539Z,3.40
2018-03-21T13:13:03.493Z,3.80
2018-03-21T13:15:34.760Z,3.40
2018-03-21T13:18:22.014Z,3.10
2018-03-21T13:20:53.855Z,2.70
2018-03-21T13:23:25.764Z,3.10
2018-03-21T13:26:09.562Z,3.30
2018-03-21T13:28:41.753Z,2.40
2018-03-21T13:31:13.810Z,2.20
2018-03-21T13:33:46.160Z,2.80
2018-03-21T13:36:19.071Z,2.80
2018-03-21T13:38:50.619Z,2.90
2018-03-21T13:41:21.570Z,2.80
2018-03-21T13:43:53.338Z,3.10
2018-03-21T13:46:25.179Z,3.30
2018-03-21T13:48:55.991Z,3.40
2018-03-21T13:51:26.465Z,3.10
2018-03-21T13:57:27.156Z,3.20
2018-03-21T14:00:28.836Z,3.10
2018-03-21T14:03:00.137Z,3.10
2018-03-21T14:05:32.915Z,3.20
2018-03-21T14:08:04.216Z,3.30
2018-03-21T14:10:36.571Z,3.50
2018-03-21T14:13:07.877Z,3.50
2018-03-21T14:15:40.195Z,3.70
2018-03-21T14:18:13.397Z,3.70
2018-03-21T14:21:03.760Z,3.50
2018-03-21T14:23:42.971Z,3.30
2018-03-21T14:26:21.751Z,3.10
2018-03-21T14:29:08.379Z,3.40
2018-03-21T14:31:47.785Z,3.60
2018-03-21T14:45:14.691Z,2.20
2018-03-21T14:48:01.412Z,2.40
2018-03-21T14:50:40.252Z,2.40
2018-03-21T14:53:30.959Z,2.50
2018-03-21T14:56:03.826Z,2.40
2018-03-21T14:58:41.203Z,1.70
2018-03-21T15:01:12.787Z,1.60
2018-03-21T15:03:44.761Z,1.90
2018-03-21T15:06:32.118Z,2.20
2018-03-21T15:09:16.706Z,2.20
2018-03-21T15:11:50.924Z,2.20
2018-03-21T15:14:23.065Z,2.00
2018-03-21T15:16:57.545Z,1.90
2018-03-21T15:19:28.455Z,1.60
2018-03-21T15:21:59.797Z,1.50
2018-03-21T15:24:44.690Z,1.20
2018-03-21T15:27:41.724Z,1.20
2018-03-21T15:30:16.889Z,1.20
2018-03-21T15:32:53.678Z,1.30
2018-03-21T15:35:33.611Z,1.60
2018-03-21T15:38:08.943Z,2.00
2018-03-21T15:42:04.975Z,2.20
2018-03-21T15:45:26.995Z,2.40
2018-03-21T15:47:58.231Z,2.70
2018-03-21T15:51:02.465Z,2.90
2018-03-21T15:53:58.102Z,3.10
2018-03-21T15:57:11.437Z,3.10
2018-03-21T15:59:45.994Z,2.10
2018-03-21T16:05:52.777Z,1.70
2018-03-21T16:08:24.422Z,1.80
2018-03-21T16:15:47.331Z,2.20
2018-03-21T16:18:18.984Z,2.70
2018-03-21T16:20:49.930Z,2.40
2018-03-21T16:23:20.768Z,2.60
2018-03-21T16:25:57.672Z,2.60
2018-03-21T16:28:44.348Z,2.60
2018-03-21T16:31:21.646Z,2.70
2018-03-21T16:37:28.442Z,2.60
2018-03-21T16:39:59.873Z,2.40
2018-03-21T16:42:30.756Z,2.50
2018-03-21T16:45:02.599Z,2.20
2018-03-21T16:47:39.247Z,2.20
2018-03-21T16:50:10.506Z,2.20
2018-03-21T16:52:41.196Z,2.20
2018-03-21T16:55:21.780Z,2.00
2018-03-21T16:57:59.332Z,2.00
2018-03-21T17:00:29.859Z,2.00
2018-03-21T17:03:01.048Z,1.90
2018-03-21T17:05:31.606Z,1.90
2018-03-21T17:11:09.183Z,1.70
2018-03-21T17:13:56.172Z,1.70
2018-03-21T17:16:32.922Z,1.60
2018-03-21T17:19:03.988Z,1.50
2018-03-21T17:21:34.558Z,1.30
2018-03-21T17:24:10.811Z,1.10
2018-03-21T17:26:48.444Z,1.10
2018-03-21T17:29:41.726Z,0.80
2018-03-21T17:32:14.583Z,0.80
2018-03-21T17:34:45.599Z,0.70
2018-03-21T17:37:20.064Z,0.70
2018-03-21T17:39:51.334Z,0.50
2018-03-21T17:42:22.977Z,0.50
2018-03-21T17:44:53.844Z,0.40
2018-03-21T17:47:24.936Z,0.30
2018-03-21T17:49:57.739Z,0.30
2018-03-21T17:52:28.882Z,0.20
2018-03-21T17:55:02.985Z,0.20
2018-03-21T17:57:33.743Z,0.20
2018-03-21T18:00:04.243Z,0.20
2018-03-21T18:02:35.358Z,0.20
2018-03-21T18:05:26.598Z,0.10
2018-03-21T18:07:57.001Z,0.10
2018-03-21T18:10:28.220Z,0.00
2018-03-21T18:13:01.455Z,0.00
2018-03-21T18:15:42.240Z,0.10
2018-03-21T18:18:12.921Z,0.10
2018-03-21T18:21:02.438Z,0.20
2018-03-21T18:23:36.360Z,0.20
2018-03-21T18:26:09.570Z,0.20
2018-03-21T18:28:42.604Z,0.50
2018-03-21T18:31:13.571Z,0.50
2018-03-21T18:33:44.221Z,0.70
2018-03-21T18:36:29.547Z,0.80
2018-03-21T18:39:01.751Z,0.90
2018-03-21T18:41:35.557Z,0.90
2018-03-21T18:44:06.770Z,0.90
2018-03-21T18:46:40.015Z,0.70
2018-03-21T18:49:17.197Z,0.70
2018-03-21T18:52:20.683Z,0.70
2018-03-21T18:55:30.469Z,0.50
2018-03-21T18:58:11.057Z,0.40
2018-03-21T19:00:42.247Z,0.30
2018-03-21T19:03:14.429Z,0.20
2018-03-21T19:05:45.676Z,0.40
2018-03-21T19:08:18.787Z,0.20
2018-03-21T19:10:51.466Z,0.20
2018-03-21T19:13:22.499Z,0.50
2018-03-21T19:15:52.657Z,0.60
2018-03-21T19:18:23.789Z,0.60
2018-03-21T19:20:56.069Z,0.60
2018-03-21T19:23:29.272Z,0.50
2018-03-21T19:25:59.514Z,0.50
2018-03-21T19:28:29.865Z,0.20
2018-03-21T19:31:00.996Z,-0.10
2018-03-21T19:33:31.721Z,-0.20
2018-03-21T19:36:02.217Z,-0.40
2018-03-21T19:38:33.115Z,-0.40
2018-03-21T19:41:03.815Z,-0.40
2018-03-21T19:43:35.073Z,-0.50
2018-03-21T19:46:06.576Z,-0.60
2018-03-21T21:10:43.388Z,-1.40
2018-03-21T21:13:14.021Z,-1.40
2018-03-21T21:15:44.719Z,-1.40
2018-03-21T21:18:15.396Z,-1.50
2018-03-21T21:20:45.774Z,-1.80
2018-03-21T21:23:17.804Z,-1.90
2018-03-21T21:25:48.042Z,-1.80
2018-03-21T21:28:18.679Z,-1.80
2018-03-21T21:30:50.912Z,-1.70
2018-03-21T21:33:22.518Z,-1.50
2018-03-21T21:35:53.364Z,-1.50
2018-03-21T21:38:24.385Z,-1.40
2018-03-21T21:40:59.221Z,-1.40
2018-03-21T21:43:38.419Z,-1.30
2018-03-21T21:46:09.844Z,-1.40
2018-03-21T21:48:41.065Z,-1.60
2018-03-21T21:51:12.204Z,-1.70
2018-03-21T21:53:42.688Z,-1.70
2018-03-21T21:56:13.990Z,-1.80
2018-03-21T21:58:45.547Z,-1.80
2018-03-21T22:01:18.872Z,-1.60
2018-03-21T22:03:49.280Z,-1.50
2018-03-21T22:06:20.008Z,-1.70
2018-03-21T22:08:51.231Z,-1.80
2018-03-21T22:11:22.433Z,-2.00
2018-03-21T22:13:53.261Z,-2.00
2018-03-21T22:16:23.501Z,-2.00
2018-03-21T22:19:07.960Z,-2.10
2018-03-21T22:21:40.237Z,-1.80
2018-03-21T22:24:11.555Z,-1.80
2018-03-21T22:26:45.886Z,-1.90
2018-03-21T22:29:25.320Z,-1.80
2018-03-21T22:31:55.799Z,-1.80
2018-03-21T22:34:27.816Z,-1.60
2018-03-21T22:36:58.783Z,-1.80
2018-03-21T22:39:31.033Z,-1.70
2018-03-21T22:42:03.174Z,-1.60
2018-03-21T22:44:35.251Z,-1.60
2018-03-21T22:47:06.298Z,-1.60
2018-03-21T22:49:37.143Z,-1.70
2018-03-21T22:52:09.011Z,-1.90
2018-03-21T22:54:39.476Z,-2.00
2018-03-21T22:57:09.752Z,-1.90
2018-03-21T22:59:40.258Z,-1.90
2018-03-21T23:02:10.667Z,-1.80
2018-03-21T23:04:41.380Z,-1.80
2018-03-21T23:07:12.109Z,-1.90
2018-03-21T23:09:42.858Z,-2.00
2018-03-21T23:12:14.130Z,-1.80
2018-03-21T23:14:45.623Z,-1.70
2018-03-21T23:17:16.137Z,-1.70
2018-03-21T23:19:46.376Z,-1.70
2018-03-21T23:22:17.843Z,-1.70
2018-03-21T23:24:49.264Z,-1.70
2018-03-21T23:27:19.847Z,-1.70
2018-03-21T23:29:51.012Z,-1.70
2018-03-21T23:32:21.635Z,-1.70
2018-03-21T23:34:52.614Z,-1.80
2018-03-21T23:37:24.148Z,-1.80
2018-03-21T23:40:07.396Z,-1.80
2018-03-21T23:42:40.642Z,-2.00
2018-03-21T23:45:13.337Z,-2.10
2018-03-21T23:47:45.400Z,-2.10
2018-03-21T23:51:40.512Z,-2.00
2018-03-21T23:54:11.440Z,-2.00
2018-03-21T23:56:42.648Z,-2.10
2018-03-21T23:59:13.781Z,-2.10
